sensor_id;sensor_type;location;lat;lon;timestamp;pressure;altitude;pressure_sealevel;temperature;humidity
27613;BME280;15036;48.094;-1.690;2023-05-23T00:02:03;101549.44;;;22.11;46.22
27613;BME280;15036;48.094;-1.690;2023-05-23T00:04:32;101558.81;;;21.72;47.00
27613;BME280;15036;48.094;-1.690;2023-05-23T00:06:58;101559.16;;;21.42;47.60
27613;BME280;15036;48.094;-1.690;2023-05-23T00:09:23;101559.19;;;21.92;46.49
27613;BME280;15036;48.094;-1.690;2023-05-23T00:11:48;101559.34;;;21.86;47.10
27613;BME280;15036;48.094;-1.690;2023-05-23T00:14:14;101550.06;;;21.47;47.51
27613;BME280;15036;48.094;-1.690;2023-05-23T00:16:40;101557.28;;;21.48;47.80
27613;BME280;15036;48.094;-1.690;2023-05-23T00:19:07;101556.56;;;21.86;46.89
27613;BME280;15036;48.094;-1.690;2023-05-23T00:21:33;101557.31;;;21.20;48.44
27613;BME280;15036;48.094;-1.690;2023-05-23T00:23:58;101548.28;;;21.74;47.30
27613;BME280;15036;48.094;-1.690;2023-05-23T00:26:24;101542.50;;;21.14;48.77
27613;BME280;15036;48.094;-1.690;2023-05-23T00:28:49;101538.69;;;21.04;48.91
27613;BME280;15036;48.094;-1.690;2023-05-23T00:31:14;101542.09;;;21.22;48.48
27613;BME280;15036;48.094;-1.690;2023-05-23T00:33:40;101543.16;;;21.05;49.18
27613;BME280;15036;48.094;-1.690;2023-05-23T00:36:05;101544.88;;;21.22;48.44
27613;BME280;15036;48.094;-1.690;2023-05-23T00:38:31;101549.50;;;21.17;48.81
27613;BME280;15036;48.094;-1.690;2023-05-23T00:40:57;101540.69;;;21.36;48.56
27613;BME280;15036;48.094;-1.690;2023-05-23T00:43:22;101547.72;;;21.11;48.99
27613;BME280;15036;48.094;-1.690;2023-05-23T00:45:48;101550.84;;;21.14;48.80
27613;BME280;15036;48.094;-1.690;2023-05-23T00:48:13;101550.69;;;21.37;48.59
27613;BME280;15036;48.094;-1.690;2023-05-23T00:50:40;101542.38;;;21.21;48.73
27613;BME280;15036;48.094;-1.690;2023-05-23T00:53:06;101531.16;;;21.16;48.77
27613;BME280;15036;48.094;-1.690;2023-05-23T00:55:31;101535.69;;;21.22;48.90
27613;BME280;15036;48.094;-1.690;2023-05-23T00:57:57;101529.59;;;21.36;48.59
27613;BME280;15036;48.094;-1.690;2023-05-23T01:00:26;101535.38;;;21.18;49.01
27613;BME280;15036;48.094;-1.690;2023-05-23T01:02:52;101539.31;;;21.22;49.05
27613;BME280;15036;48.094;-1.690;2023-05-23T01:05:19;101538.41;;;21.33;48.86
27613;BME280;15036;48.094;-1.690;2023-05-23T01:07:47;101543.78;;;20.95;49.58
27613;BME280;15036;48.094;-1.690;2023-05-23T01:10:14;101539.59;;;21.21;49.21
27613;BME280;15036;48.094;-1.690;2023-05-23T01:15:34;101531.78;;;21.34;48.84
27613;BME280;15036;48.094;-1.690;2023-05-23T01:18:01;101540.59;;;21.15;49.28
27613;BME280;15036;48.094;-1.690;2023-05-23T01:20:42;101536.88;;;21.09;49.33
27613;BME280;15036;48.094;-1.690;2023-05-23T01:28:27;101540.66;;;21.03;49.34
27613;BME280;15036;48.094;-1.690;2023-05-23T01:30:56;101540.31;;;21.16;48.99
27613;BME280;15036;48.094;-1.690;2023-05-23T01:33:23;101530.59;;;21.30;48.99
27613;BME280;15036;48.094;-1.690;2023-05-23T01:35:49;101543.31;;;21.43;48.36
27613;BME280;15036;48.094;-1.690;2023-05-23T01:38:15;101535.75;;;21.55;48.15
27613;BME280;15036;48.094;-1.690;2023-05-23T01:40:41;101535.06;;;21.48;48.36
27613;BME280;15036;48.094;-1.690;2023-05-23T01:43:06;101534.28;;;21.19;48.96
27613;BME280;15036;48.094;-1.690;2023-05-23T01:45:32;101532.03;;;21.33;48.92
27613;BME280;15036;48.094;-1.690;2023-05-23T01:47:59;101535.47;;;21.23;49.06
27613;BME280;15036;48.094;-1.690;2023-05-23T01:50:27;101546.41;;;21.30;48.93
27613;BME280;15036;48.094;-1.690;2023-05-23T01:52:54;101536.16;;;21.30;48.98
27613;BME280;15036;48.094;-1.690;2023-05-23T01:55:21;101538.06;;;21.13;49.54
27613;BME280;15036;48.094;-1.690;2023-05-23T01:57:49;101544.19;;;20.87;49.77
27613;BME280;15036;48.094;-1.690;2023-05-23T02:00:16;101538.47;;;20.94;49.85
27613;BME280;15036;48.094;-1.690;2023-05-23T02:02:41;101532.38;;;20.80;49.99
27613;BME280;15036;48.094;-1.690;2023-05-23T02:05:08;101529.56;;;20.92;49.63
27613;BME280;15036;48.094;-1.690;2023-05-23T02:07:34;101533.59;;;21.12;49.38
27613;BME280;15036;48.094;-1.690;2023-05-23T02:09:59;101535.75;;;20.82;49.97
27613;BME280;15036;48.094;-1.690;2023-05-23T02:12:25;101529.13;;;21.00;49.53
27613;BME280;15036;48.094;-1.690;2023-05-23T02:14:50;101531.06;;;21.11;49.36
27613;BME280;15036;48.094;-1.690;2023-05-23T02:17:19;101528.53;;;20.98;49.92
27613;BME280;15036;48.094;-1.690;2023-05-23T02:19:46;101523.81;;;21.10;49.37
27613;BME280;15036;48.094;-1.690;2023-05-23T02:22:11;101519.69;;;20.56;50.86
27613;BME280;15036;48.094;-1.690;2023-05-23T02:24:37;101535.94;;;20.24;51.59
27613;BME280;15036;48.094;-1.690;2023-05-23T02:27:03;101533.88;;;20.08;52.17
27613;BME280;15036;48.094;-1.690;2023-05-23T02:29:28;101536.53;;;20.66;50.70
27613;BME280;15036;48.094;-1.690;2023-05-23T02:31:53;101540.47;;;20.82;50.14
27613;BME280;15036;48.094;-1.690;2023-05-23T02:34:19;101540.13;;;21.06;49.52
27613;BME280;15036;48.094;-1.690;2023-05-23T02:36:44;101544.25;;;21.04;49.65
27613;BME280;15036;48.094;-1.690;2023-05-23T02:39:10;101537.47;;;21.00;49.60
27613;BME280;15036;48.094;-1.690;2023-05-23T02:41:35;101538.06;;;21.30;49.21
27613;BME280;15036;48.094;-1.690;2023-05-23T02:44:01;101536.22;;;21.19;49.30
27613;BME280;15036;48.094;-1.690;2023-05-23T02:46:26;101537.06;;;21.19;49.38
27613;BME280;15036;48.094;-1.690;2023-05-23T02:48:52;101536.41;;;21.01;49.57
27613;BME280;15036;48.094;-1.690;2023-05-23T02:51:17;101542.69;;;20.96;49.95
27613;BME280;15036;48.094;-1.690;2023-05-23T02:53:42;101525.41;;;20.66;50.65
27613;BME280;15036;48.094;-1.690;2023-05-23T02:56:08;101538.88;;;20.86;50.27
27613;BME280;15036;48.094;-1.690;2023-05-23T02:58:34;101535.50;;;20.55;51.02
27613;BME280;15036;48.094;-1.690;2023-05-23T03:01:02;101533.63;;;21.29;49.49
27613;BME280;15036;48.094;-1.690;2023-05-23T03:03:28;101542.97;;;21.23;49.47
27613;BME280;15036;48.094;-1.690;2023-05-23T03:05:59;101545.28;;;21.14;49.82
27613;BME280;15036;48.094;-1.690;2023-05-23T03:08:24;101538.66;;;21.32;49.25
27613;BME280;15036;48.094;-1.690;2023-05-23T03:10:50;101532.25;;;21.31;49.20
27613;BME280;15036;48.094;-1.690;2023-05-23T03:13:16;101532.75;;;20.84;50.08
27613;BME280;15036;48.094;-1.690;2023-05-23T03:15:41;101540.94;;;20.79;50.72
27613;BME280;15036;48.094;-1.690;2023-05-23T03:18:06;101546.44;;;20.90;50.51
27613;BME280;15036;48.094;-1.690;2023-05-23T03:20:32;101548.22;;;21.08;50.18
27613;BME280;15036;48.094;-1.690;2023-05-23T03:22:58;101534.16;;;20.58;51.24
27613;BME280;15036;48.094;-1.690;2023-05-23T03:25:23;101542.06;;;21.06;49.89
27613;BME280;15036;48.094;-1.690;2023-05-23T03:27:48;101539.56;;;20.93;50.37
27613;BME280;15036;48.094;-1.690;2023-05-23T03:30:14;101544.25;;;21.04;50.26
27613;BME280;15036;48.094;-1.690;2023-05-23T03:32:39;101540.81;;;20.85;50.54
27613;BME280;15036;48.094;-1.690;2023-05-23T03:35:05;101533.75;;;20.66;51.28
27613;BME280;15036;48.094;-1.690;2023-05-23T03:37:31;101537.50;;;20.71;51.14
27613;BME280;15036;48.094;-1.690;2023-05-23T03:39:56;101543.84;;;20.32;52.24
27613;BME280;15036;48.094;-1.690;2023-05-23T03:42:22;101540.56;;;20.87;50.91
27613;BME280;15036;48.094;-1.690;2023-05-23T03:44:47;101531.25;;;20.53;51.63
27613;BME280;15036;48.094;-1.690;2023-05-23T03:47:12;101525.50;;;20.83;51.04
27613;BME280;15036;48.094;-1.690;2023-05-23T03:49:38;101536.44;;;20.89;51.00
27613;BME280;15036;48.094;-1.690;2023-05-23T03:52:03;101522.19;;;20.97;50.61
27613;BME280;15036;48.094;-1.690;2023-05-23T03:54:28;101529.38;;;20.70;51.43
27613;BME280;15036;48.094;-1.690;2023-05-23T03:56:54;101520.47;;;20.28;52.57
27613;BME280;15036;48.094;-1.690;2023-05-23T03:59:19;101524.06;;;20.40;52.16
27613;BME280;15036;48.094;-1.690;2023-05-23T04:01:44;101522.88;;;20.25;52.78
27613;BME280;15036;48.094;-1.690;2023-05-23T04:04:10;101516.72;;;20.11;52.93
27613;BME280;15036;48.094;-1.690;2023-05-23T04:06:35;101522.84;;;20.76;51.22
27613;BME280;15036;48.094;-1.690;2023-05-23T04:09:01;101528.53;;;20.81;51.12
27613;BME280;15036;48.094;-1.690;2023-05-23T04:11:27;101520.50;;;20.56;51.86
27613;BME280;15036;48.094;-1.690;2023-05-23T04:13:52;101522.84;;;20.36;52.35
27613;BME280;15036;48.094;-1.690;2023-05-23T04:16:18;101520.69;;;20.15;52.78
27613;BME280;15036;48.094;-1.690;2023-05-23T04:18:44;101526.94;;;20.85;50.93
27613;BME280;15036;48.094;-1.690;2023-05-23T04:21:11;101527.97;;;20.67;51.32
27613;BME280;15036;48.094;-1.690;2023-05-23T04:23:37;101527.09;;;20.27;52.20
27613;BME280;15036;48.094;-1.690;2023-05-23T04:26:02;101523.06;;;20.58;51.60
27613;BME280;15036;48.094;-1.690;2023-05-23T04:28:30;101522.25;;;20.74;51.00
27613;BME280;15036;48.094;-1.690;2023-05-23T04:30:58;101521.09;;;20.58;51.06
27613;BME280;15036;48.094;-1.690;2023-05-23T04:33:23;101522.63;;;20.66;50.91
27613;BME280;15036;48.094;-1.690;2023-05-23T04:35:49;101525.78;;;20.69;50.50
27613;BME280;15036;48.094;-1.690;2023-05-23T04:38:15;101532.31;;;20.63;50.42
27613;BME280;15036;48.094;-1.690;2023-05-23T04:40:41;101525.59;;;20.59;50.56
27613;BME280;15036;48.094;-1.690;2023-05-23T04:43:06;101537.63;;;21.05;49.70
27613;BME280;15036;48.094;-1.690;2023-05-23T04:45:34;101536.50;;;20.78;49.88
27613;BME280;15036;48.094;-1.690;2023-05-23T04:48:01;101539.81;;;20.91;49.42
27613;BME280;15036;48.094;-1.690;2023-05-23T04:50:26;101536.88;;;20.98;48.92
27613;BME280;15036;48.094;-1.690;2023-05-23T04:52:55;101537.22;;;21.29;47.93
27613;BME280;15036;48.094;-1.690;2023-05-23T04:55:21;101546.22;;;21.20;48.06
27613;BME280;15036;48.094;-1.690;2023-05-23T04:57:47;101537.13;;;20.96;48.32
27613;BME280;15036;48.094;-1.690;2023-05-23T05:00:12;101543.03;;;21.00;48.20
27613;BME280;15036;48.094;-1.690;2023-05-23T05:02:39;101552.19;;;21.12;47.87
27613;BME280;15036;48.094;-1.690;2023-05-23T05:05:05;101545.41;;;21.36;47.32
27613;BME280;15036;48.094;-1.690;2023-05-23T05:07:31;101553.63;;;21.14;47.28
27613;BME280;15036;48.094;-1.690;2023-05-23T05:09:57;101555.47;;;20.69;48.73
27613;BME280;15036;48.094;-1.690;2023-05-23T05:12:22;101547.69;;;21.39;47.03
27613;BME280;15036;48.094;-1.690;2023-05-23T05:14:48;101546.03;;;20.82;47.96
27613;BME280;15036;48.094;-1.690;2023-05-23T05:17:13;101551.75;;;21.03;47.46
27613;BME280;15036;48.094;-1.690;2023-05-23T05:19:38;101550.78;;;21.26;46.87
27613;BME280;15036;48.094;-1.690;2023-05-23T05:22:04;101549.09;;;21.25;46.49
27613;BME280;15036;48.094;-1.690;2023-05-23T05:24:30;101558.06;;;21.60;46.06
27613;BME280;15036;48.094;-1.690;2023-05-23T05:26:57;101551.88;;;21.25;46.38
27613;BME280;15036;48.094;-1.690;2023-05-23T05:29:22;101549.38;;;21.40;46.19
27613;BME280;15036;48.094;-1.690;2023-05-23T05:31:47;101549.50;;;21.33;46.23
27613;BME280;15036;48.094;-1.690;2023-05-23T05:34:13;101561.84;;;21.54;46.02
27613;BME280;15036;48.094;-1.690;2023-05-23T05:36:38;101550.31;;;21.62;45.48
27613;BME280;15036;48.094;-1.690;2023-05-23T05:39:10;101553.66;;;21.47;45.76
27613;BME280;15036;48.094;-1.690;2023-05-23T05:41:36;101548.47;;;21.51;45.83
27613;BME280;15036;48.094;-1.690;2023-05-23T05:44:01;101561.94;;;21.14;46.17
27613;BME280;15036;48.094;-1.690;2023-05-23T05:46:26;101564.19;;;21.29;46.07
27613;BME280;15036;48.094;-1.690;2023-05-23T05:48:52;101551.47;;;21.49;45.70
27613;BME280;15036;48.094;-1.690;2023-05-23T05:51:17;101554.06;;;21.23;46.25
27613;BME280;15036;48.094;-1.690;2023-05-23T05:53:43;101560.66;;;21.50;45.83
27613;BME280;15036;48.094;-1.690;2023-05-23T05:56:08;101556.44;;;21.47;45.98
27613;BME280;15036;48.094;-1.690;2023-05-23T05:58:33;101569.38;;;21.87;45.10
27613;BME280;15036;48.094;-1.690;2023-05-23T06:00:59;101562.88;;;21.81;45.40
27613;BME280;15036;48.094;-1.690;2023-05-23T06:03:24;101558.66;;;21.95;44.99
27613;BME280;15036;48.094;-1.690;2023-05-23T06:05:51;101567.75;;;21.74;45.19
27613;BME280;15036;48.094;-1.690;2023-05-23T06:08:16;101573.84;;;21.88;44.92
27613;BME280;15036;48.094;-1.690;2023-05-23T06:10:42;101573.91;;;21.76;45.61
27613;BME280;15036;48.094;-1.690;2023-05-23T06:13:07;101565.09;;;21.34;46.16
27613;BME280;15036;48.094;-1.690;2023-05-23T06:15:32;101568.53;;;21.25;46.37
27613;BME280;15036;48.094;-1.690;2023-05-23T06:17:58;101566.59;;;21.87;45.06
27613;BME280;15036;48.094;-1.690;2023-05-23T06:20:23;101566.56;;;22.03;44.87
27613;BME280;15036;48.094;-1.690;2023-05-23T06:22:48;101570.78;;;21.89;45.14
27613;BME280;15036;48.094;-1.690;2023-05-23T06:25:14;101566.38;;;21.27;46.33
27613;BME280;15036;48.094;-1.690;2023-05-23T06:27:39;101573.47;;;20.95;47.01
27613;BME280;15036;48.094;-1.690;2023-05-23T06:30:07;101573.38;;;21.46;46.20
27613;BME280;15036;48.094;-1.690;2023-05-23T06:32:32;101580.72;;;21.69;45.82
27613;BME280;15036;48.094;-1.690;2023-05-23T06:34:57;101580.63;;;21.64;45.59
27613;BME280;15036;48.094;-1.690;2023-05-23T06:37:23;101578.00;;;21.57;45.80
27613;BME280;15036;48.094;-1.690;2023-05-23T06:39:49;101580.97;;;21.67;45.47
27613;BME280;15036;48.094;-1.690;2023-05-23T06:42:14;101590.44;;;21.21;46.72
27613;BME280;15036;48.094;-1.690;2023-05-23T06:44:40;101584.41;;;21.41;46.28
27613;BME280;15036;48.094;-1.690;2023-05-23T06:47:05;101585.06;;;21.48;46.05
27613;BME280;15036;48.094;-1.690;2023-05-23T06:49:31;101587.59;;;21.49;46.22
27613;BME280;15036;48.094;-1.690;2023-05-23T06:51:56;101581.72;;;21.18;46.93
27613;BME280;15036;48.094;-1.690;2023-05-23T06:54:21;101585.06;;;21.48;46.32
27613;BME280;15036;48.094;-1.690;2023-05-23T06:56:47;101582.84;;;21.17;47.03
27613;BME280;15036;48.094;-1.690;2023-05-23T06:59:12;101598.53;;;21.84;45.87
27613;BME280;15036;48.094;-1.690;2023-05-23T07:01:37;101583.13;;;21.04;47.22
27613;BME280;15036;48.094;-1.690;2023-05-23T07:04:03;101596.53;;;21.35;46.42
27613;BME280;15036;48.094;-1.690;2023-05-23T07:06:29;101597.09;;;21.82;45.69
27613;BME280;15036;48.094;-1.690;2023-05-23T07:08:55;101598.31;;;21.13;46.86
27613;BME280;15036;48.094;-1.690;2023-05-23T07:11:20;101596.53;;;21.35;46.58
27613;BME280;15036;48.094;-1.690;2023-05-23T07:13:46;101607.94;;;21.83;45.96
27613;BME280;15036;48.094;-1.690;2023-05-23T07:16:11;101613.44;;;22.11;45.19
27613;BME280;15036;48.094;-1.690;2023-05-23T07:18:37;101606.88;;;21.00;47.10
27613;BME280;15036;48.094;-1.690;2023-05-23T07:21:02;101612.28;;;21.46;46.33
27613;BME280;15036;48.094;-1.690;2023-05-23T07:23:31;101615.56;;;21.59;46.27
27613;BME280;15036;48.094;-1.690;2023-05-23T07:25:57;101611.31;;;22.18;44.90
27613;BME280;15036;48.094;-1.690;2023-05-23T07:28:22;101615.59;;;21.76;45.77
27613;BME280;15036;48.094;-1.690;2023-05-23T07:30:47;101620.69;;;22.12;44.76
27613;BME280;15036;48.094;-1.690;2023-05-23T07:33:13;101614.63;;;21.82;nan
27613;BME280;15036;48.094;-1.690;2023-05-23T07:35:38;101610.78;;;21.72;45.23
27613;BME280;15036;48.094;-1.690;2023-05-23T07:38:03;101612.72;;;21.71;45.24
27613;BME280;15036;48.094;-1.690;2023-05-23T07:40:29;101607.91;;;21.22;46.27
27613;BME280;15036;48.094;-1.690;2023-05-23T07:42:54;101594.69;;;21.12;46.49
27613;BME280;15036;48.094;-1.690;2023-05-23T07:45:20;101611.41;;;21.29;46.37
27613;BME280;15036;48.094;-1.690;2023-05-23T07:47:46;101616.78;;;21.80;45.39
27613;BME280;15036;48.094;-1.690;2023-05-23T07:50:11;101617.22;;;21.44;45.90
27613;BME280;15036;48.094;-1.690;2023-05-23T07:52:37;101627.22;;;22.23;44.52
27613;BME280;15036;48.094;-1.690;2023-05-23T07:55:03;101632.16;;;22.16;44.71
27613;BME280;15036;48.094;-1.690;2023-05-23T07:57:29;101627.88;;;21.47;46.20
27613;BME280;15036;48.094;-1.690;2023-05-23T07:59:54;101632.94;;;21.67;46.10
27613;BME280;15036;48.094;-1.690;2023-05-23T08:02:19;101634.44;;;22.02;45.78
27613;BME280;15036;48.094;-1.690;2023-05-23T08:04:46;101624.66;;;22.16;45.59
27613;BME280;15036;48.094;-1.690;2023-05-23T08:07:12;101628.91;;;21.74;46.26
27613;BME280;15036;48.094;-1.690;2023-05-23T08:09:38;101623.31;;;22.40;45.62
27613;BME280;15036;48.094;-1.690;2023-05-23T08:12:05;101632.09;;;22.32;45.91
27613;BME280;15036;48.094;-1.690;2023-05-23T08:14:31;101616.94;;;22.78;44.86
27613;BME280;15036;48.094;-1.690;2023-05-23T08:16:56;101629.94;;;22.18;46.51
27613;BME280;15036;48.094;-1.690;2023-05-23T08:19:22;101625.72;;;21.99;47.03
27613;BME280;15036;48.094;-1.690;2023-05-23T08:21:47;101624.00;;;21.65;48.12
27613;BME280;15036;48.094;-1.690;2023-05-23T08:24:12;101632.94;;;22.50;46.74
27613;BME280;15036;48.094;-1.690;2023-05-23T08:26:38;101629.63;;;22.53;46.74
27613;BME280;15036;48.094;-1.690;2023-05-23T08:29:04;101638.53;;;22.33;46.33
27613;BME280;15036;48.094;-1.690;2023-05-23T08:31:30;101634.81;;;22.27;47.25
27613;BME280;15036;48.094;-1.690;2023-05-23T08:33:56;101629.63;;;22.91;45.92
27613;BME280;15036;48.094;-1.690;2023-05-23T08:36:21;101631.69;;;23.00;45.21
27613;BME280;15036;48.094;-1.690;2023-05-23T08:38:48;101629.19;;;22.99;45.52
27613;BME280;15036;48.094;-1.690;2023-05-23T08:41:24;101630.00;;;23.21;44.86
27613;BME280;15036;48.094;-1.690;2023-05-23T08:43:51;101630.88;;;23.48;44.37
27613;BME280;15036;48.094;-1.690;2023-05-23T08:46:17;101645.59;;;23.70;43.73
27613;BME280;15036;48.094;-1.690;2023-05-23T08:48:51;101646.97;;;22.98;45.19
27613;BME280;15036;48.094;-1.690;2023-05-23T08:51:18;101644.41;;;23.13;45.04
27613;BME280;15036;48.094;-1.690;2023-05-23T08:53:44;101650.72;;;22.65;46.03
27613;BME280;15036;48.094;-1.690;2023-05-23T08:56:13;101642.13;;;23.32;44.63
27613;BME280;15036;48.094;-1.690;2023-05-23T08:58:40;101652.50;;;23.63;43.76
27613;BME280;15036;48.094;-1.690;2023-05-23T09:01:06;101653.06;;;23.38;44.00
27613;BME280;15036;48.094;-1.690;2023-05-23T09:03:34;101650.31;;;23.96;42.72
27613;BME280;15036;48.094;-1.690;2023-05-23T09:06:01;101652.09;;;24.07;42.25
27613;BME280;15036;48.094;-1.690;2023-05-23T09:08:26;101657.91;;;23.74;43.18
27613;BME280;15036;48.094;-1.690;2023-05-23T09:10:52;101649.28;;;24.02;42.78
27613;BME280;15036;48.094;-1.690;2023-05-23T09:13:18;101648.47;;;24.44;42.05
27613;BME280;15036;48.094;-1.690;2023-05-23T09:18:23;101652.47;;;24.58;42.20
27613;BME280;15036;48.094;-1.690;2023-05-23T09:20:49;101651.41;;;24.27;42.12
27613;BME280;15036;48.094;-1.690;2023-05-23T09:23:15;101653.50;;;24.42;42.08
27613;BME280;15036;48.094;-1.690;2023-05-23T09:25:47;101648.91;;;24.26;42.49
27613;BME280;15036;48.094;-1.690;2023-05-23T09:28:12;101652.88;;;24.35;42.42
27613;BME280;15036;48.094;-1.690;2023-05-23T09:30:37;101653.44;;;24.37;42.28
27613;BME280;15036;48.094;-1.690;2023-05-23T09:33:03;101658.25;;;24.88;41.56
27613;BME280;15036;48.094;-1.690;2023-05-23T09:35:29;101662.22;;;25.02;40.89
27613;BME280;15036;48.094;-1.690;2023-05-23T09:37:56;101667.53;;;24.99;41.09
27613;BME280;15036;48.094;-1.690;2023-05-23T09:40:23;101667.94;;;25.27;40.88
27613;BME280;15036;48.094;-1.690;2023-05-23T09:42:53;101673.13;;;24.99;41.04
27613;BME280;15036;48.094;-1.690;2023-05-23T09:45:18;101669.22;;;23.89;43.29
27613;BME280;15036;48.094;-1.690;2023-05-23T09:47:50;101676.13;;;24.08;43.23
27613;BME280;15036;48.094;-1.690;2023-05-23T09:50:18;101667.19;;;24.06;43.34
27613;BME280;15036;48.094;-1.690;2023-05-23T09:52:44;101672.53;;;23.60;43.61
27613;BME280;15036;48.094;-1.690;2023-05-23T09:55:10;101676.66;;;24.05;43.24
27613;BME280;15036;48.094;-1.690;2023-05-23T09:57:36;101662.66;;;23.74;43.61
27613;BME280;15036;48.094;-1.690;2023-05-23T10:00:04;101680.09;;;23.91;43.38
27613;BME280;15036;48.094;-1.690;2023-05-23T10:05:20;101683.22;;;24.63;42.05
27613;BME280;15036;48.094;-1.690;2023-05-23T10:07:46;101678.59;;;24.78;41.86
27613;BME280;15036;48.094;-1.690;2023-05-23T10:10:12;101676.75;;;23.62;43.86
27613;BME280;15036;48.094;-1.690;2023-05-23T10:12:47;101680.63;;;23.88;43.82
27613;BME280;15036;48.094;-1.690;2023-05-23T10:15:14;101690.44;;;23.37;44.81
27613;BME280;15036;48.094;-1.690;2023-05-23T10:20:24;101688.22;;;23.39;44.50
27613;BME280;15036;48.094;-1.690;2023-05-23T10:22:50;101688.03;;;22.86;45.62
27613;BME280;15036;48.094;-1.690;2023-05-23T10:25:16;101678.03;;;23.76;43.77
27613;BME280;15036;48.094;-1.690;2023-05-23T10:27:41;101681.03;;;24.28;42.49
27613;BME280;15036;48.094;-1.690;2023-05-23T10:30:07;101680.53;;;23.78;43.28
27613;BME280;15036;48.094;-1.690;2023-05-23T10:32:33;101687.53;;;23.80;43.23
27613;BME280;15036;48.094;-1.690;2023-05-23T10:40:06;101681.69;;;24.45;41.59
27613;BME280;15036;48.094;-1.690;2023-05-23T10:47:58;101680.88;;;24.81;40.45
27613;BME280;15036;48.094;-1.690;2023-05-23T10:52:59;101684.22;;;25.40;39.64
27613;BME280;15036;48.094;-1.690;2023-05-23T10:55:25;101677.94;;;25.13;39.98
27613;BME280;15036;48.094;-1.690;2023-05-23T11:00:36;101679.41;;;25.31;39.25
27613;BME280;15036;48.094;-1.690;2023-05-23T11:03:03;101682.34;;;25.61;38.96
27613;BME280;15036;48.094;-1.690;2023-05-23T11:05:29;101678.72;;;25.81;39.26
27613;BME280;15036;48.094;-1.690;2023-05-23T11:08:09;101683.47;;;25.75;38.93
27613;BME280;15036;48.094;-1.690;2023-05-23T11:10:51;101673.97;;;26.46;38.26
27613;BME280;15036;48.094;-1.690;2023-05-23T11:13:17;101674.22;;;26.80;37.36
27613;BME280;15036;48.094;-1.690;2023-05-23T11:15:42;101678.75;;;26.51;37.24
27613;BME280;15036;48.094;-1.690;2023-05-23T11:18:10;101678.69;;;26.91;36.44
27613;BME280;15036;48.094;-1.690;2023-05-23T11:20:43;101667.69;;;27.05;36.30
27613;BME280;15036;48.094;-1.690;2023-05-23T11:23:09;101667.31;;;27.31;36.14
27613;BME280;15036;48.094;-1.690;2023-05-23T11:25:43;101654.31;;;27.51;35.54
27613;BME280;15036;48.094;-1.690;2023-05-23T11:28:09;101651.94;;;28.11;35.00
27613;BME280;15036;48.094;-1.690;2023-05-23T11:30:35;101645.66;;;27.86;34.36
27613;BME280;15036;48.094;-1.690;2023-05-23T11:33:07;101645.91;;;28.28;34.23
27613;BME280;15036;48.094;-1.690;2023-05-23T11:35:34;101646.00;;;28.13;34.24
27613;BME280;15036;48.094;-1.690;2023-05-23T11:38:00;101649.09;;;27.78;35.04
27613;BME280;15036;48.094;-1.690;2023-05-23T11:40:36;101644.31;;;28.46;34.39
27613;BME280;15036;48.094;-1.690;2023-05-23T11:43:06;101645.91;;;28.23;34.19
27613;BME280;15036;48.094;-1.690;2023-05-23T11:45:32;101641.00;;;28.39;33.82
27613;BME280;15036;48.094;-1.690;2023-05-23T11:47:58;101639.31;;;27.70;35.30
27613;BME280;15036;48.094;-1.690;2023-05-23T11:50:23;101645.31;;;27.54;35.44
27613;BME280;15036;48.094;-1.690;2023-05-23T11:52:49;101636.56;;;27.65;34.85
27613;BME280;15036;48.094;-1.690;2023-05-23T11:55:20;101633.72;;;27.16;35.86
27613;BME280;15036;48.094;-1.690;2023-05-23T11:57:46;101640.25;;;27.99;34.97
27613;BME280;15036;48.094;-1.690;2023-05-23T12:00:11;101636.94;;;28.55;34.22
27613;BME280;15036;48.094;-1.690;2023-05-23T12:02:40;101632.38;;;29.06;33.27
27613;BME280;15036;48.094;-1.690;2023-05-23T12:05:07;101641.81;;;29.39;32.89
27613;BME280;15036;48.094;-1.690;2023-05-23T12:07:32;101631.88;;;29.83;31.87
27613;BME280;15036;48.094;-1.690;2023-05-23T12:09:57;101642.09;;;28.71;33.01
27613;BME280;15036;48.094;-1.690;2023-05-23T12:12:23;101639.13;;;28.29;33.65
27613;BME280;15036;48.094;-1.690;2023-05-23T12:14:48;101640.16;;;28.90;33.47
27613;BME280;15036;48.094;-1.690;2023-05-23T12:17:13;101641.84;;;28.39;34.05
27613;BME280;15036;48.094;-1.690;2023-05-23T12:19:39;101627.50;;;28.69;33.80
27613;BME280;15036;48.094;-1.690;2023-05-23T12:22:07;101641.38;;;27.93;34.20
27613;BME280;15036;48.094;-1.690;2023-05-23T12:24:32;101639.81;;;28.16;34.22
27613;BME280;15036;48.094;-1.690;2023-05-23T12:26:58;101634.50;;;28.14;34.42
27613;BME280;15036;48.094;-1.690;2023-05-23T12:29:28;101625.63;;;28.31;33.97
27613;BME280;15036;48.094;-1.690;2023-05-23T12:31:53;101628.34;;;28.70;32.79
27613;BME280;15036;48.094;-1.690;2023-05-23T12:34:19;101626.19;;;27.61;34.75
27613;BME280;15036;48.094;-1.690;2023-05-23T12:36:44;101631.66;;;28.48;33.45
27613;BME280;15036;48.094;-1.690;2023-05-23T12:39:13;101625.94;;;28.58;32.94
27613;BME280;15036;48.094;-1.690;2023-05-23T12:41:40;101622.50;;;29.14;32.49
27613;BME280;15036;48.094;-1.690;2023-05-23T12:44:05;101621.38;;;29.33;31.96
27613;BME280;15036;48.094;-1.690;2023-05-23T12:46:30;101612.56;;;28.45;33.41
27613;BME280;15036;48.094;-1.690;2023-05-23T12:48:55;101619.91;;;29.12;32.40
27613;BME280;15036;48.094;-1.690;2023-05-23T12:51:21;101628.78;;;29.24;32.74
27613;BME280;15036;48.094;-1.690;2023-05-23T12:53:46;101622.88;;;29.81;31.50
27613;BME280;15036;48.094;-1.690;2023-05-23T12:56:11;101622.44;;;29.93;30.46
27613;BME280;15036;48.094;-1.690;2023-05-23T12:58:37;101618.72;;;30.43;29.89
27613;BME280;15036;48.094;-1.690;2023-05-23T13:01:02;101626.28;;;31.02;28.84
27613;BME280;15036;48.094;-1.690;2023-05-23T13:03:28;101613.09;;;30.57;29.34
27613;BME280;15036;48.094;-1.690;2023-05-23T13:05:56;101613.50;;;31.32;28.63
27613;BME280;15036;48.094;-1.690;2023-05-23T13:08:24;101620.13;;;31.00;28.83